Time;durP1;ratioP1;P1;durP2;ratioP2;P2;SDS_P1;SDS_P2;PMS_P1;PMS_P2;Temp;Humidity;BMP_temperature;BMP_pressure;BME280_temperature;BME280_humidity;BME280_pressure;Samples;Min_cycle;Max_cycle;Signal;HPM_P1;HPM_P2
2023/09/19 04:56:15;;;;;;;1999.90;999.90;;;;;;;;;;4883144;27;20056;-70
2023/09/19 04:58:41;;;;;;;1999.90;999.90;;;;;;;;;;4927577;29;20032;-68
2023/09/19 05:01:11;;;;;;;1999.90;999.90;;;;;;;;;;4910951;29;20063;-69
2023/09/19 05:03:38;;;;;;;1999.90;999.90;;;;;;;;;;4924453;29;20174;-69
2023/09/19 05:06:05;;;;;;;1999.90;999.90;;;;;;;;;;4924617;29;20127;-71
2023/09/19 05:08:31;;;;;;;1999.90;999.90;;;;;;;;;;4916933;29;20609;-70
2023/09/19 05:10:57;;;;;;;1999.90;999.90;;;;;;;;;;4924435;29;20035;-70
2023/09/19 05:13:24;;;;;;;1999.90;999.90;;;;;;;;;;4922154;29;20028;-68
2023/09/19 05:15:51;;;;;;;1999.90;999.90;;;;;;;;;;4907525;29;20383;-68
2023/09/19 05:18:17;;;;;;;1999.90;999.90;;;;;;;;;;4925922;29;20026;-70
2023/09/19 05:20:43;;;;;;;1999.90;999.90;;;;;;;;;;4923995;29;20028;-71
2023/09/19 05:23:12;;;;;;;1999.90;999.90;;;;;;;;;;4920189;29;20494;-70
2023/09/19 05:25:38;;;;;;;1999.90;999.90;;;;;;;;;;4933239;29;20051;-71
2023/09/19 05:28:05;;;;;;;1999.90;999.90;;;;;;;;;;4933035;29;20059;-71
2023/09/19 05:30:32;;;;;;;1999.90;999.90;;;;;;;;;;4927369;29;20060;-73
2023/09/19 05:32:58;;;;;;;1999.90;999.90;;;;;;;;;;4922063;29;20509;-74
2023/09/19 05:35:26;;;;;;;1999.90;999.90;;;;;;;;;;4923836;29;20468;-73
2023/09/19 05:37:52;;;;;;;1999.90;999.90;;;;;;;;;;4922856;29;20445;-73
2023/09/19 05:40:19;;;;;;;1999.90;999.90;;;;;;;;;;4922330;29;20365;-71
2023/09/19 05:42:45;;;;;;;1999.90;999.90;;;;;;;;;;4929851;29;20036;-72
2023/09/19 05:45:12;;;;;;;1999.90;999.90;;;;;;;;;;4932995;29;20027;-71
2023/09/19 05:47:38;;;;;;;1999.90;999.90;;;;;;;;;;4932667;29;20476;-71
2023/09/19 05:50:09;;;;;;;1999.90;999.90;;;;;;;;;;4933225;29;20060;-69
2023/09/19 05:52:37;;;;;;;1999.90;999.90;;;;;;;;;;4932847;29;20027;-71
2023/09/19 05:55:05;;;;;;;1999.90;999.90;;;;;;;;;;4932416;29;20042;-72
2023/09/19 05:57:31;;;;;;;1999.90;999.90;;;;;;;;;;4932749;29;20035;-69
2023/09/19 05:59:57;;;;;;;1999.90;999.90;;;;;;;;;;4932719;29;20034;-69
2023/09/19 06:02:23;;;;;;;1999.90;999.90;;;;;;;;;;4932931;29;20043;-70
2023/09/19 06:04:49;;;;;;;1999.90;999.90;;;;;;;;;;4934058;29;20066;-70
2023/09/19 06:07:16;;;;;;;1999.90;999.90;;;;;;;;;;4936360;29;20174;-73
2023/09/19 06:09:42;;;;;;;1999.90;999.90;;;;;;;;;;4936285;29;20098;-73
2023/09/19 06:12:09;;;;;;;1999.90;999.90;;;;;;;;;;4936429;29;20058;-71
2023/09/19 06:14:35;;;;;;;1999.90;999.90;;;;;;;;;;4919245;29;20032;-70
2023/09/19 06:17:01;;;;;;;1999.90;999.90;;;;;;;;;;4919260;29;20071;-72
2023/09/19 06:19:27;;;;;;;1999.90;999.90;;;;;;;;;;4936280;29;20067;-70
2023/09/19 06:21:54;;;;;;;1999.90;999.90;;;;;;;;;;4936145;29;20035;-70
2023/09/19 06:24:21;;;;;;;1999.90;999.90;;;;;;;;;;4936220;29;20090;-72
2023/09/19 06:26:47;;;;;;;1999.90;999.90;;;;;;;;;;4936346;29;20066;-71
2023/09/19 06:29:14;;;;;;;1999.90;999.90;;;;;;;;;;4935860;29;20607;-69
2023/09/19 06:31:40;;;;;;;1999.90;999.90;;;;;;;;;;4936154;29;20361;-69
2023/09/19 06:34:06;;;;;;;1999.90;999.90;;;;;;;;;;4936108;29;20395;-69
2023/09/19 06:36:32;;;;;;;1999.90;999.90;;;;;;;;;;4935320;29;20443;-68
2023/09/19 06:38:59;;;;;;;1999.90;999.90;;;;;;;;;;4935111;29;20407;-70
2023/09/19 06:41:25;;;;;;;1999.90;999.90;;;;;;;;;;4935183;29;20118;-69
2023/09/19 06:43:53;;;;;;;1999.90;999.90;;;;;;;;;;4927073;29;20032;-72
2023/09/19 06:46:19;;;;;;;1999.90;999.90;;;;;;;;;;4925646;29;20466;-72
2023/09/19 06:48:47;;;;;;;1999.90;999.90;;;;;;;;;;4926743;29;20103;-71
2023/09/19 06:51:16;;;;;;;1999.90;999.90;;;;;;;;;;4925919;29;20016;-70
2023/09/19 06:53:42;;;;;;;1999.90;999.90;;;;;;;;;;4925116;29;20028;-70
2023/09/19 06:56:08;;;;;;;1999.90;999.90;;;;;;;;;;4926770;29;20419;-70
2023/09/19 06:58:36;;;;;;;1999.90;999.90;;;;;;;;;;4925119;29;20035;-69
2023/09/19 07:01:03;;;;;;;1999.90;999.90;;;;;;;;;;4925183;29;20020;-76
2023/09/19 07:03:29;;;;;;;1999.90;999.90;;;;;;;;;;4926684;29;20032;-73
2023/09/19 07:05:55;;;;;;;1999.90;999.90;;;;;;;;;;4925367;29;20031;-71
2023/09/19 07:08:22;;;;;;;1999.90;999.90;;;;;;;;;;4924502;29;20479;-72
2023/09/19 07:10:48;;;;;;;1999.90;999.90;;;;;;;;;;4923966;29;20027;-73
2023/09/19 07:13:16;;;;;;;1999.90;999.90;;;;;;;;;;4907508;29;20115;-72
2023/09/19 07:15:46;;;;;;;1999.90;999.90;;;;;;;;;;4924420;29;20428;-73
2023/09/19 07:18:16;;;;;;;1999.90;999.90;;;;;;;;;;4925968;29;20107;-71
2023/09/19 07:20:45;;;;;;;1999.90;999.90;;;;;;;;;;4926263;29;20028;-70
2023/09/19 07:23:15;;;;;;;1999.90;999.90;;;;;;;;;;4924191;29;20042;-71
2023/09/19 07:25:41;;;;;;;1999.90;999.90;;;;;;;;;;4907615;29;20405;-69
2023/09/19 07:28:07;;;;;;;1999.90;999.90;;;;;;;;;;4925766;29;20468;-69
2023/09/19 07:30:37;;;;;;;1999.90;999.90;;;;;;;;;;4924652;29;20028;-69
2023/09/19 07:33:04;;;;;;;1999.90;999.90;;;;;;;;;;4924278;29;20035;-71
2023/09/19 07:35:30;;;;;;;1999.90;999.90;;;;;;;;;;4925867;29;20643;-71
2023/09/19 07:37:56;;;;;;;1999.90;999.90;;;;;;;;;;4907555;29;20363;-71
2023/09/19 07:40:23;;;;;;;1999.90;999.90;;;;;;;;;;4921525;29;20494;-69
2023/09/19 07:42:50;;;;;;;1999.90;999.90;;;;;;;;;;4916279;29;20055;-71
2023/09/19 07:45:17;;;;;;;1999.90;999.90;;;;;;;;;;4931445;29;20097;-70
2023/09/19 07:47:49;;;;;;;1999.90;999.90;;;;;;;;;;4923289;29;20032;-70
2023/09/19 07:50:18;;;;;;;1999.90;999.90;;;;;;;;;;4922994;29;20030;-69
2023/09/19 07:52:44;;;;;;;1999.90;999.90;;;;;;;;;;4923581;29;20044;-71
2023/09/19 07:55:11;;;;;;;1999.90;999.90;;;;;;;;;;4930920;29;20095;-70
2023/09/19 07:57:37;;;;;;;1999.90;999.90;;;;;;;;;;4934610;29;20511;-68
2023/09/19 08:00:07;;;;;;;1999.90;999.90;;;;;;;;;;4917304;29;20043;-70
2023/09/19 08:02:40;;;;;;;1999.90;999.90;;;;;;;;;;4934260;29;20455;-67
2023/09/19 08:05:06;;;;;;;1999.90;999.90;;;;;;;;;;4934214;29;20507;-67
2023/09/19 08:07:36;;;;;;;1999.90;999.90;;;;;;;;;;4934344;29;20063;-64
2023/09/19 08:10:02;;;;;;;1999.90;999.90;;;;;;;;;;4934079;29;20106;-68
2023/09/19 08:12:28;;;;;;;1999.90;999.90;;;;;;;;;;4934251;29;20031;-67
2023/09/19 08:14:55;;;;;;;1999.90;999.90;;;;;;;;;;4934130;29;20027;-68
2023/09/19 08:17:22;;;;;;;1999.90;999.90;;;;;;;;;;4934145;29;20024;-68
2023/09/19 08:19:52;;;;;;;1999.90;999.90;;;;;;;;;;4932986;29;20028;-69
2023/09/19 08:22:18;;;;;;;1999.90;999.90;;;;;;;;;;4933819;29;20110;-70
2023/09/19 08:24:44;;;;;;;1999.90;999.90;;;;;;;;;;4933585;29;20373;-68
2023/09/19 08:27:12;;;;;;;1999.90;999.90;;;;;;;;;;4933598;29;20039;-70
2023/09/19 08:29:38;;;;;;;1999.90;999.90;;;;;;;;;;4933325;29;20385;-67
2023/09/19 08:32:04;;;;;;;1999.90;999.90;;;;;;;;;;4933994;29;20114;-71
2023/09/19 08:34:32;;;;;;;1999.90;999.90;;;;;;;;;;4933717;29;20110;-66
2023/09/19 08:36:58;;;;;;;1999.90;999.90;;;;;;;;;;4933375;29;20078;-72
2023/09/19 08:39:25;;;;;;;1999.90;999.90;;;;;;;;;;4933440;29;20562;-67
2023/09/19 08:42:01;;;;;;;1999.90;999.90;;;;;;;;;;4933280;29;20114;-68
2023/09/19 08:44:29;;;;;;;1999.90;999.90;;;;;;;;;;4917488;29;20463;-67
2023/09/19 08:46:58;;;;;;;1999.90;999.90;;;;;;;;;;4953116;29;20015;-71
2023/09/19 08:49:50;;;;;;;1999.90;999.90;;;;;;;;;;4952747;29;20471;-70
2023/09/19 08:52:16;;;;;;;;;;;;;;;;;;4856115;29;20128;-67
2023/09/19 08:54:43;;;;;;;1999.90;999.90;;;;;;;;;;4855692;29;20003;-70
2023/09/19 08:57:10;;;;;;;1999.90;999.90;;;;;;;;;;4856138;29;20049;-70
2023/09/19 08:59:39;;;;;;;1999.90;999.90;;;;;;;;;;4856238;29;20029;-69
2023/09/19 09:02:11;;;;;;;1999.90;999.90;;;;;;;;;;4855947;29;20182;-69
2023/09/19 09:04:39;;;;;;;1999.90;999.90;;;;;;;;;;4855624;29;20061;-68
2023/09/19 09:07:05;;;;;;;1999.90;999.90;;;;;;;;;;4855281;29;20041;-70
2023/09/19 09:09:31;;;;;;;1999.90;999.90;;;;;;;;;;4856024;29;20049;-70
2023/09/19 09:11:58;;;;;;;1999.90;999.90;;;;;;;;;;4855664;29;20064;-70
2023/09/19 09:14:24;;;;;;;1999.90;999.90;;;;;;;;;;4855590;29;20066;-69
2023/09/19 09:16:50;;;;;;;1999.90;999.90;;;;;;;;;;4855578;29;20103;-68
2023/09/19 09:19:24;;;;;;;1999.90;999.90;;;;;;;;;;4855461;29;20038;-67
2023/09/19 09:21:50;;;;;;;1999.90;999.90;;;;;;;;;;4852757;29;20538;-67
2023/09/19 09:24:33;;;;;;;1999.90;999.90;;;;;;;;;;4844450;29;20034;-69
2023/09/19 09:27:01;;;;;;;1999.90;999.90;;;;;;;;;;4847209;29;20037;-71
2023/09/19 09:29:56;;;;;;;1999.90;999.90;;;;;;;;;;4904993;29;20054;-67
2023/09/19 09:32:26;;;;;;;1999.90;999.90;;;;;;;;;;4867075;29;20471;-69
2023/09/19 09:34:53;;;;;;;1999.90;999.90;;;;;;;;;;4864393;29;20132;-68
2023/09/19 09:37:20;;;;;;;1999.90;999.90;;;;;;;;;;4862470;29;20029;-68
2023/09/19 09:39:51;;;;;;;1999.90;999.90;;;;;;;;;;4866852;29;20053;-66
2023/09/19 09:42:38;;;;;;;1999.90;999.90;;;;;;;;;;4868427;29;20382;-69
2023/09/19 09:45:14;;;;;;;1999.90;999.90;;;;;;;;;;4867761;29;20025;-68
2023/09/19 09:47:54;;;;;;;1999.90;999.90;;;;;;;;;;4868248;29;20056;-69
2023/09/19 09:51:04;;;;;;;1999.90;999.90;;;;;;;;;;4868383;29;20068;-67
2023/09/19 09:53:25;;;;;;;1999.90;999.90;;;;;;;;;;4865737;29;20040;-68
2023/09/19 09:56:09;;;;;;;1999.90;999.90;;;;;;;;;;4862340;29;20061;-67
2023/09/19 09:58:59;;;;;;;1999.90;999.90;;;;;;;;;;4858784;29;20473;-67
2023/09/19 10:01:26;;;;;;;1999.90;999.90;;;;;;;;;;4861593;29;20089;-67
2023/09/19 10:03:58;;;;;;;1999.90;999.90;;;;;;;;;;4876991;29;20029;-67
2023/09/19 10:09:05;;;;;;;1999.90;999.90;;;;;;;;;;4907678;29;20040;-68
2023/09/19 10:11:31;;;;;;;1999.90;999.90;;;;;;;;;;4935935;29;20384;-68
2023/09/19 10:14:01;;;;;;;1999.90;999.90;;;;;;;;;;4936106;29;20055;-67
2023/09/19 10:16:30;;;;;;;1999.90;999.90;;;;;;;;;;4936105;29;20019;-69
2023/09/19 10:18:59;;;;;;;1999.90;999.90;;;;;;;;;;4935604;29;20020;-67
2023/09/19 10:21:29;;;;;;;1999.90;999.90;;;;;;;;;;4935866;29;20032;-69
2023/09/19 10:23:59;;;;;;;1999.90;999.90;;;;;;;;;;4935875;29;20031;-69
2023/09/19 10:26:30;;;;;;;1999.90;999.90;;;;;;;;;;4936112;29;20082;-67
2023/09/19 10:28:59;;;;;;;1999.90;999.90;;;;;;;;;;4936056;29;20027;-69
2023/09/19 10:31:26;;;;;;;1999.90;999.90;;;;;;;;;;4936145;29;20476;-66
2023/09/19 10:33:55;;;;;;;1999.90;999.90;;;;;;;;;;4919080;29;20174;-68
2023/09/19 10:36:21;;;;;;;1999.90;999.90;;;;;;;;;;4936468;29;20028;-69
2023/09/19 10:38:49;;;;;;;1999.90;999.90;;;;;;;;;;4936539;29;20114;-69
2023/09/19 10:41:17;;;;;;;1999.90;999.90;;;;;;;;;;4935586;29;20030;-68
2023/09/19 10:43:44;;;;;;;1999.90;999.90;;;;;;;;;;4936477;29;20043;-67
2023/09/19 10:46:12;;;;;;;1999.90;999.90;;;;;;;;;;4935698;29;20042;-65
2023/09/19 10:48:39;;;;;;;1999.90;999.90;;;;;;;;;;4928336;29;20034;-65
2023/09/19 10:51:09;;;;;;;1999.90;999.90;;;;;;;;;;4925868;29;20152;-65
2023/09/19 10:53:47;;;;;;;1999.90;999.90;;;;;;;;;;4925113;29;20039;-67
2023/09/19 10:56:18;;;;;;;1999.90;999.90;;;;;;;;;;4925535;29;20051;-66
2023/09/19 10:58:44;;;;;;;1999.90;999.90;;;;;;;;;;4925825;29;20109;-66
2023/09/19 11:01:18;;;;;;;1999.90;999.90;;;;;;;;;;4927173;29;20027;-66
2023/09/19 11:03:45;;;;;;;1999.90;999.90;;;;;;;;;;4926778;29;20036;-66
2023/09/19 11:06:16;;;;;;;1999.90;999.90;;;;;;;;;;4907358;29;20028;-67
2023/09/19 11:08:57;;;;;;;1999.90;999.90;;;;;;;;;;4922187;29;20491;-66
2023/09/19 11:11:39;;;;;;;1999.90;999.90;;;;;;;;;;4929499;29;20028;-66
2023/09/19 11:14:24;;;;;;;1999.90;999.90;;;;;;;;;;4925902;29;20571;-65
2023/09/19 11:17:11;;;;;;;1999.90;999.90;;;;;;;;;;4925938;29;20379;-65
2023/09/19 11:19:56;;;;;;;1999.90;999.90;;;;;;;;;;4915962;29;20036;-67
2023/09/19 11:22:22;;;;;;;1999.90;999.90;;;;;;;;;;4916062;29;20510;-66
2023/09/19 11:24:51;;;;;;;1999.90;999.90;;;;;;;;;;4915792;29;20044;-67
2023/09/19 11:27:18;;;;;;;1999.90;999.90;;;;;;;;;;4915751;29;20119;-67
2023/09/19 11:29:44;;;;;;;1999.90;999.90;;;;;;;;;;4915684;29;20047;-69
2023/09/19 11:32:11;;;;;;;1999.90;999.90;;;;;;;;;;4898634;29;20036;-71
2023/09/19 11:34:37;;;;;;;1999.90;999.90;;;;;;;;;;4915602;29;20028;-66
2023/09/19 11:37:15;;;;;;;1999.90;999.90;;;;;;;;;;4933684;29;20071;-67
2023/09/19 11:40:01;;;;;;;1999.90;999.90;;;;;;;;;;4933811;29;20028;-68
2023/09/19 11:42:53;;;;;;;1999.90;999.90;;;;;;;;;;4934076;29;20036;-67
2023/09/19 11:45:38;;;;;;;1999.90;999.90;;;;;;;;;;4934400;29;20506;-70
2023/09/19 11:48:06;;;;;;;1999.90;999.90;;;;;;;;;;4933133;29;20039;-67
2023/09/19 11:50:34;;;;;;;1999.90;999.90;;;;;;;;;;4934602;29;20047;-69
2023/09/19 11:53:02;;;;;;;1999.90;999.90;;;;;;;;;;4934500;29;20031;-66
2023/09/19 11:55:34;;;;;;;1999.90;999.90;;;;;;;;;;4934079;29;20052;-66
2023/09/19 11:58:00;;;;;;;1999.90;999.90;;;;;;;;;;4934594;29;20028;-69
2023/09/19 12:00:27;;;;;;;1999.90;999.90;;;;;;;;;;4934200;29;20027;-67
2023/09/19 12:02:57;;;;;;;1999.90;999.90;;;;;;;;;;4923898;29;20047;-66
2023/09/19 12:05:30;;;;;;;1999.90;999.90;;;;;;;;;;4917608;29;20015;-65
2023/09/19 12:07:56;;;;;;;1999.90;999.90;;;;;;;;;;4952160;29;20027;-69
2023/09/19 12:10:23;;;;;;;1999.90;999.90;;;;;;;;;;4953537;29;20023;-69
2023/09/19 12:12:50;;;;;;;1999.90;999.90;;;;;;;;;;4952722;29;20114;-70
2023/09/19 12:15:28;;;;;;;1999.90;999.90;;;;;;;;;;4953571;29;20035;-67
2023/09/19 12:17:54;;;;;;;1999.90;999.90;;;;;;;;;;4952820;29;20023;-66
2023/09/19 12:20:21;;;;;;;1999.90;999.90;;;;;;;;;;4953020;29;20034;-67
2023/09/19 12:22:49;;;;;;;1999.90;999.90;;;;;;;;;;4952640;29;20046;-68
2023/09/19 12:25:17;;;;;;;1999.90;999.90;;;;;;;;;;4953019;29;20035;-67
2023/09/19 12:27:44;;;;;;;1999.90;999.90;;;;;;;;;;4952619;29;20078;-71
2023/09/19 12:30:14;;;;;;;1999.90;999.90;;;;;;;;;;4952996;29;20066;-69
2023/09/19 12:32:40;;;;;;;1999.90;999.90;;;;;;;;;;4952833;29;20031;-69
2023/09/19 12:35:11;;;;;;;1999.90;999.90;;;;;;;;;;4951282;29;20078;-69
2023/09/19 12:37:45;;;;;;;1999.90;999.90;;;;;;;;;;4933227;29;20083;-71
2023/09/19 12:40:17;;;;;;;1999.90;999.90;;;;;;;;;;4933560;29;20039;-67
2023/09/19 12:42:44;;;;;;;1999.90;999.90;;;;;;;;;;4932905;29;20123;-69
2023/09/19 12:45:13;;;;;;;1999.90;999.90;;;;;;;;;;4933394;29;20036;-70
2023/09/19 12:47:43;;;;;;;1999.90;999.90;;;;;;;;;;4933695;29;20031;-64
2023/09/19 12:50:25;;;;;;;1999.90;999.90;;;;;;;;;;4933202;29;20023;-65
2023/09/19 12:52:51;;;;;;;1999.90;999.90;;;;;;;;;;4933445;29;20031;-67
2023/09/19 12:55:35;;;;;;;1999.90;999.90;;;;;;;;;;4932954;29;20086;-70
2023/09/19 12:58:18;;;;;;;1999.90;999.90;;;;;;;;;;4932975;29;20036;-71
2023/09/19 13:00:45;;;;;;;1999.90;999.90;;;;;;;;;;4924724;29;20103;-73
2023/09/19 13:06:02;;;;;;;1999.90;999.90;;;;;;;;;;4924168;29;20083;-67
2023/09/19 13:08:32;;;;;;;1999.90;999.90;;;;;;;;;;4923145;29;20038;-70
2023/09/19 13:11:12;;;;;;;1999.90;999.90;;;;;;;;;;4916939;29;20028;-70
2023/09/19 13:13:48;;;;;;;1999.90;999.90;;;;;;;;;;4913202;29;20107;-71
2023/09/19 13:16:14;;;;;;;1999.90;999.90;;;;;;;;;;4914368;29;20560;-71
2023/09/19 13:18:45;;;;;;;1999.90;999.90;;;;;;;;;;4914356;29;20052;-69
2023/09/19 13:21:14;;;;;;;1999.90;999.90;;;;;;;;;;4913840;29;20025;-71
2023/09/19 13:23:42;;;;;;;1999.90;999.90;;;;;;;;;;4913927;29;20047;-72
2023/09/19 13:26:08;;;;;;;1999.90;999.90;;;;;;;;;;4914618;29;20031;-71
2023/09/19 13:28:34;;;;;;;1999.90;999.90;;;;;;;;;;4913979;29;20111;-67
2023/09/19 13:31:01;;;;;;;1999.90;999.90;;;;;;;;;;4914404;29;20107;-73
2023/09/19 13:33:27;;;;;;;1999.90;999.90;;;;;;;;;;4913550;29;20028;-67
2023/09/19 13:35:53;;;;;;;1999.90;999.90;;;;;;;;;;4914433;29;20095;-70
2023/09/19 13:38:21;;;;;;;1999.90;999.90;;;;;;;;;;4913922;29;20065;-70
2023/09/19 13:40:47;;;;;;;1999.90;999.90;;;;;;;;;;4914356;29;20115;-70
2023/09/19 13:43:13;;;;;;;1999.90;999.90;;;;;;;;;;4913762;29;20088;-67
2023/09/19 13:45:42;;;;;;;1999.90;999.90;;;;;;;;;;4913906;29;20036;-70
2023/09/19 13:48:08;;;;;;;1999.90;999.90;;;;;;;;;;4913890;29;20062;-70
2023/09/19 13:50:41;;;;;;;1999.90;999.90;;;;;;;;;;4914010;29;20024;-72
2023/09/19 13:53:08;;;;;;;1999.90;999.90;;;;;;;;;;4914086;29;20025;-69
2023/09/19 13:55:34;;;;;;;1999.90;999.90;;;;;;;;;;4913507;29;20048;-69
2023/09/19 13:58:00;;;;;;;1999.90;999.90;;;;;;;;;;4944787;28;20542;-74
2023/09/19 14:00:27;;;;;;;1999.90;999.90;;;;;;;;;;4951915;29;20131;-73
2023/09/19 14:02:53;;;;;;;1999.90;999.90;;;;;;;;;;4951715;29;20046;-72
2023/09/19 14:05:20;;;;;;;1999.90;999.90;;;;;;;;;;4952233;28;20039;-71
2023/09/19 14:07:46;;;;;;;1999.90;999.90;;;;;;;;;;4951655;29;20027;-73
2023/09/19 14:10:12;;;;;;;1999.90;999.90;;;;;;;;;;4951927;29;20102;-72
2023/09/19 14:12:41;;;;;;;1999.90;999.90;;;;;;;;;;4951606;29;20035;-73
2023/09/19 14:15:08;;;;;;;1999.90;999.90;;;;;;;;;;4951785;29;20063;-72
2023/09/19 14:17:34;;;;;;;1999.90;999.90;;;;;;;;;;4951875;29;20522;-71
2023/09/19 14:20:01;;;;;;;1999.90;999.90;;;;;;;;;;4951579;29;20031;-70
2023/09/19 14:22:27;;;;;;;1999.90;999.90;;;;;;;;;;4951984;29;20047;-75
2023/09/19 14:24:53;;;;;;;1999.90;999.90;;;;;;;;;;4951336;28;20035;-73
2023/09/19 14:27:19;;;;;;;1999.90;999.90;;;;;;;;;;4925239;29;20403;-73
2023/09/19 14:29:45;;;;;;;1999.90;999.90;;;;;;;;;;4935930;29;20028;-74
2023/09/19 14:32:11;;;;;;;1999.90;999.90;;;;;;;;;;4936055;29;20152;-75
2023/09/19 14:34:41;;;;;;;1999.90;999.90;;;;;;;;;;4935814;29;20027;-69
2023/09/19 14:37:08;;;;;;;1999.90;999.90;;;;;;;;;;4936278;29;20479;-70
2023/09/19 14:39:34;;;;;;;1999.90;999.90;;;;;;;;;;4935647;29;20028;-72
2023/09/19 14:42:00;;;;;;;1999.90;999.90;;;;;;;;;;4935934;29;20031;-71
2023/09/19 14:44:27;;;;;;;1999.90;999.90;;;;;;;;;;4917672;29;20040;-72
2023/09/19 14:46:54;;;;;;;1999.90;999.90;;;;;;;;;;4935963;29;20440;-68
2023/09/19 14:49:20;;;;;;;1999.90;999.90;;;;;;;;;;4935517;29;20027;-68
2023/09/19 14:51:47;;;;;;;1999.90;999.90;;;;;;;;;;4935359;29;20107;-69
2023/09/19 14:54:16;;;;;;;1999.90;999.90;;;;;;;;;;4934689;29;20023;-72
2023/09/19 14:56:42;;;;;;;1999.90;999.90;;;;;;;;;;4919311;29;20091;-70
2023/09/19 14:59:10;;;;;;;1999.90;999.90;;;;;;;;;;4916198;29;20027;-66
2023/09/19 15:01:37;;;;;;;1999.90;999.90;;;;;;;;;;4916798;29;20121;-69
2023/09/19 15:04:03;;;;;;;1999.90;999.90;;;;;;;;;;4916564;29;20039;-70
2023/09/19 15:06:30;;;;;;;1999.90;999.90;;;;;;;;;;4916320;29;20140;-66
2023/09/19 15:08:56;;;;;;;1999.90;999.90;;;;;;;;;;4899081;29;20044;-69
2023/09/19 15:11:23;;;;;;;1999.90;999.90;;;;;;;;;;4918352;29;20028;-66
2023/09/19 15:13:51;;;;;;;1999.90;999.90;;;;;;;;;;4928971;29;20035;-69
2023/09/19 15:16:17;;;;;;;1999.90;999.90;;;;;;;;;;4935002;29;20361;-69
2023/09/19 15:18:47;;;;;;;1999.90;999.90;;;;;;;;;;4934787;29;20038;-67
2023/09/19 15:21:14;;;;;;;1999.90;999.90;;;;;;;;;;4934749;29;20047;-67
2023/09/19 15:23:41;;;;;;;1999.90;999.90;;;;;;;;;;4934550;29;20052;-66
2023/09/19 15:26:11;;;;;;;1999.90;999.90;;;;;;;;;;4934855;29;20054;-69
2023/09/19 15:28:37;;;;;;;1999.90;999.90;;;;;;;;;;4934778;29;20066;-68
2023/09/19 15:31:03;;;;;;;1999.90;999.90;;;;;;;;;;4934754;29;20020;-66
2023/09/19 15:33:32;;;;;;;1999.90;999.90;;;;;;;;;;4934305;29;20023;-69
2023/09/19 15:36:03;;;;;;;1999.90;999.90;;;;;;;;;;4934378;29;20024;-69
2023/09/19 15:38:29;;;;;;;1999.90;999.90;;;;;;;;;;4934473;29;20023;-72
2023/09/19 15:40:55;;;;;;;1999.90;999.90;;;;;;;;;;4934859;29;20038;-72
2023/09/19 15:43:21;;;;;;;1999.90;999.90;;;;;;;;;;4933776;29;20050;-71
2023/09/19 15:45:51;;;;;;;1999.90;999.90;;;;;;;;;;4933348;29;20031;-68
2023/09/19 15:48:18;;;;;;;1999.90;999.90;;;;;;;;;;4934549;29;20035;-70
2023/09/19 15:50:44;;;;;;;1999.90;999.90;;;;;;;;;;4934319;29;20504;-69
2023/09/19 15:53:14;;;;;;;1999.90;999.90;;;;;;;;;;4920556;29;20036;-71
2023/09/19 15:55:40;;;;;;;1999.90;999.90;;;;;;;;;;4925359;29;20097;-69
2023/09/19 15:58:06;;;;;;;1999.90;999.90;;;;;;;;;;4916108;29;20064;-70
2023/09/19 16:00:36;;;;;;;1999.90;999.90;;;;;;;;;;4934136;29;20067;-70
2023/09/19 16:03:02;;;;;;;1999.90;999.90;;;;;;;;;;4934577;29;20044;-71
2023/09/19 16:05:29;;;;;;;1999.90;999.90;;;;;;;;;;4934480;29;20103;-69
2023/09/19 16:07:55;;;;;;;1999.90;999.90;;;;;;;;;;4934490;29;20038;-70
2023/09/19 16:10:22;;;;;;;1999.90;999.90;;;;;;;;;;4942627;29;20383;-70
2023/09/19 16:12:50;;;;;;;1999.90;999.90;;;;;;;;;;4953776;29;20026;-69
2023/09/19 16:15:16;;;;;;;1999.90;999.90;;;;;;;;;;4953384;29;20027;-71
2023/09/19 16:17:42;;;;;;;1999.90;999.90;;;;;;;;;;4944131;29;20047;-71
2023/09/19 16:20:12;;;;;;;1999.90;999.90;;;;;;;;;;4924814;29;20024;-69
2023/09/19 16:22:38;;;;;;;1999.90;999.90;;;;;;;;;;4932770;29;20126;-69
2023/09/19 16:25:04;;;;;;;1999.90;999.90;;;;;;;;;;4923623;29;20028;-69
2023/09/19 16:27:30;;;;;;;1999.90;999.90;;;;;;;;;;4915319;29;20083;-72
2023/09/19 16:29:56;;;;;;;1999.90;999.90;;;;;;;;;;4914697;29;20020;-70
2023/09/19 16:32:22;;;;;;;1999.90;999.90;;;;;;;;;;4915138;29;20473;-68
2023/09/19 16:34:48;;;;;;;1999.90;999.90;;;;;;;;;;4914853;29;20069;-69
2023/09/19 16:37:14;;;;;;;1999.90;999.90;;;;;;;;;;4914627;29;20031;-70
2023/09/19 16:39:42;;;;;;;1999.90;999.90;;;;;;;;;;4914791;29;20028;-70
2023/09/19 16:42:08;;;;;;;1999.90;999.90;;;;;;;;;;4915252;29;20024;-70
2023/09/19 16:44:34;;;;;;;1999.90;999.90;;;;;;;;;;4914607;29;20480;-68
2023/09/19 16:47:02;;;;;;;1999.90;999.90;;;;;;;;;;4915187;29;20028;-69
2023/09/19 16:49:29;;;;;;;1999.90;999.90;;;;;;;;;;4914167;29;20047;-69
2023/09/19 16:51:55;;;;;;;1999.90;999.90;;;;;;;;;;4917524;29;20036;-69
2023/09/19 16:54:21;;;;;;;1999.90;999.90;;;;;;;;;;4914306;29;20119;-68
2023/09/19 16:56:47;;;;;;;1999.90;999.90;;;;;;;;;;4914745;29;20047;-68
2023/09/19 16:59:14;;;;;;;1999.90;999.90;;;;;;;;;;4914678;29;20028;-67
2023/09/19 17:01:40;;;;;;;1999.90;999.90;;;;;;;;;;4914442;29;20032;-69
2023/09/19 17:04:07;;;;;;;1999.90;999.90;;;;;;;;;;4917158;29;20492;-68
2023/09/19 17:06:33;;;;;;;1999.90;999.90;;;;;;;;;;4914808;29;20028;-68
2023/09/19 17:09:00;;;;;;;1999.90;999.90;;;;;;;;;;4919015;29;20039;-69
2023/09/19 17:11:26;;;;;;;1999.90;999.90;;;;;;;;;;4916902;29;20174;-66
2023/09/19 17:13:57;;;;;;;1999.90;999.90;;;;;;;;;;4914513;29;20075;-69
2023/09/19 17:16:23;;;;;;;1999.90;999.90;;;;;;;;;;4914413;29;20115;-69
2023/09/19 17:18:53;;;;;;;1999.90;999.90;;;;;;;;;;4914485;29;20489;-69
2023/09/19 17:21:19;;;;;;;1999.90;999.90;;;;;;;;;;4913992;29;20099;-69
2023/09/19 17:23:45;;;;;;;1999.90;999.90;;;;;;;;;;4914354;29;20052;-69
2023/09/19 17:26:17;;;;;;;1999.90;999.90;;;;;;;;;;4914242;29;20481;-68
2023/09/19 17:28:43;;;;;;;1999.90;999.90;;;;;;;;;;4913966;29;20412;-69
2023/09/19 17:31:11;;;;;;;1999.90;999.90;;;;;;;;;;4914039;29;20051;-69
2023/09/19 17:33:37;;;;;;;1999.90;999.90;;;;;;;;;;4914112;29;20028;-70
2023/09/19 17:36:07;;;;;;;1999.90;999.90;;;;;;;;;;4914285;29;20024;-67
2023/09/19 17:38:33;;;;;;;1999.90;999.90;;;;;;;;;;4919916;29;20361;-69
2023/09/19 17:41:03;;;;;;;1999.90;999.90;;;;;;;;;;4924052;29;20064;-70
2023/09/19 17:43:29;;;;;;;1999.90;999.90;;;;;;;;;;4921821;29;20032;-69
2023/09/19 17:45:55;;;;;;;1999.90;999.90;;;;;;;;;;4923585;29;20083;-68
2023/09/19 17:48:21;;;;;;;1999.90;999.90;;;;;;;;;;4923982;29;20032;-68
2023/09/19 17:50:47;;;;;;;1999.90;999.90;;;;;;;;;;4920776;29;20035;-68
2023/09/19 17:53:15;;;;;;;1999.90;999.90;;;;;;;;;;4923470;29;20102;-69
2023/09/19 17:55:41;;;;;;;1999.90;999.90;;;;;;;;;;4924345;29;20046;-71
2023/09/19 17:58:07;;;;;;;1999.90;999.90;;;;;;;;;;4924915;29;20488;-69
2023/09/19 18:00:37;;;;;;;1999.90;999.90;;;;;;;;;;4923662;29;20558;-70
2023/09/19 18:03:03;;;;;;;1999.90;999.90;;;;;;;;;;4923977;29;20031;-70
2023/09/19 18:05:30;;;;;;;1999.90;999.90;;;;;;;;;;4925666;29;20832;-70
2023/09/19 18:07:56;;;;;;;1999.90;999.90;;;;;;;;;;4927237;29;20090;-71
2023/09/19 18:10:22;;;;;;;1999.90;999.90;;;;;;;;;;4935811;29;20032;-69
2023/09/19 18:12:48;;;;;;;1999.90;999.90;;;;;;;;;;4935578;29;20487;-68
2023/09/19 18:15:14;;;;;;;1999.90;999.90;;;;;;;;;;4915501;29;20156;-68
2023/09/19 18:17:40;;;;;;;1999.90;999.90;;;;;;;;;;4934915;29;20063;-68
2023/09/19 18:20:09;;;;;;;1999.90;999.90;;;;;;;;;;4947731;29;20031;-75
2023/09/19 18:22:36;;;;;;;1999.90;999.90;;;;;;;;;;4935680;29;20040;-74
2023/09/19 18:25:02;;;;;;;1999.90;999.90;;;;;;;;;;4935542;29;20031;-68
2023/09/19 18:27:30;;;;;;;1999.90;999.90;;;;;;;;;;4935010;29;20036;-71
2023/09/19 18:29:57;;;;;;;1999.90;999.90;;;;;;;;;;4925745;29;20379;-70
2023/09/19 18:32:23;;;;;;;1999.90;999.90;;;;;;;;;;4933223;29;20036;-71
2023/09/19 18:34:49;;;;;;;1999.90;999.90;;;;;;;;;;4936013;29;20042;-77
2023/09/19 18:37:15;;;;;;;1999.90;999.90;;;;;;;;;;4935285;29;20043;-68
2023/09/19 18:39:41;;;;;;;1999.90;999.90;;;;;;;;;;4932765;29;20035;-70
2023/09/19 18:42:07;;;;;;;1999.90;999.90;;;;;;;;;;4935601;29;20992;-69
2023/09/19 18:44:33;;;;;;;1999.90;999.90;;;;;;;;;;4935510;29;20898;-71
2023/09/19 18:47:01;;;;;;;1999.90;999.90;;;;;;;;;;4926333;29;20043;-68
2023/09/19 18:49:27;;;;;;;1999.90;999.90;;;;;;;;;;4927490;29;20032;-70